Here is the Quick Look data you requested

The Data originates at the National Weather Service, and is made available here by the UAlbany Department of Atmospheric and Environmental Sciences

Surface Observations

KBKW 251051Z AUTO 17003KT 10SM BKN070 15/14 A2998 RMK AO2 SLP123 T01500139
 VISNO RWY19 $=
KBLF 251052Z AUTO 26005KT 10SM CLR 16/13 A3000 RMK AO2 SLP129 T01560133=
KCKB 251053Z 00000KT 7SM FEW002 16/15 A2991 RMK AO2 SLP114 T01560150=
KCRW 251054Z 00000KT 10SM FEW000 FEW050 SCT120 BKN250 17/16 A2989 RMK AO2
 SLP114 FG FEW000 T01670161 $=
KEKN 251051Z AUTO 00000KT 1/2SM FG VV002 15/15 A2996 RMK AO2 SLP139 T01500150 $=
KHLG 251053Z AUTO 17004KT 10SM CLR 19/17 A2988 RMK AO2 SLP111 T01890167=
KHTS 251051Z 00000KT 10SM BKN120 20/17 A2988 RMK AO2 SLP110 T02000172=
KLWB 251055Z AUTO 00000KT M1/4SM FG OVC001 14/13 A2999 RMK AO2 LTG DSNT SW
 T01350132=
KMGW 251053Z 00000KT 8SM CLR 18/17 A2992 RMK AO2 SLP122 T01780167=
KMRB 251053Z AUTO 00000KT 4SM BR CLR 16/16 A2987 RMK AO2 SLP109 T01610161=
KPKB 251053Z 00000KT 8SM CLR 17/16 A2988 RMK AO2 SLP111 T01720156=
KUNI 251055Z AUTO 00000KT 10SM SCT060 17/16 A2988 RMK AO2 T01670156=
KW99 251055Z AUTO 00000KT M1/4SM FG VV001 16/16 A2991 RMK AO2 T01620162=